Time;durP1;ratioP1;P1;durP2;ratioP2;P2;SDS_P1;SDS_P2;PMS_P1;PMS_P2;Temp;Humidity;BMP_temperature;BMP_pressure;BME280_temperature;BME280_humidity;BME280_pressure;Samples;Min_cycle;Max_cycle;Signal;HPM_P1;HPM_P2
2022/04/03 00:00:37;;;;;;;0.05;0.05;;;1.50;1.00;;;;;;5058394;28;20403;-69
2022/04/03 00:03:04;;;;;;;0.00;0.00;;;1.30;1.00;;;;;;5058277;28;20156;-69
2022/04/03 00:05:37;;;;;;;0.55;0.55;;;1.40;1.00;;;;;;5057946;28;20036;-69
2022/04/03 00:08:04;;;;;;;0.00;0.00;;;1.30;1.00;;;;;;5057293;28;20415;-69
2022/04/03 00:10:30;;;;;;;0.38;0.38;;;1.30;1.00;;;;;;5058780;28;20064;-69
2022/04/03 00:12:56;;;;;;;0.00;0.00;;;1.50;1.00;;;;;;5057893;28;20083;-69
2022/04/03 00:15:22;;;;;;;0.00;0.00;;;1.30;1.00;;;;;;5058361;28;20537;-69
2022/04/03 00:17:47;;;;;;;0.35;0.25;;;1.20;1.00;;;;;;5058246;28;20051;-69
2022/04/03 00:20:14;;;;;;;0.20;0.20;;;1.40;1.00;;;;;;5057785;28;20064;-69
2022/04/03 00:22:43;;;;;;;0.00;0.00;;;1.20;1.00;;;;;;5057283;28;20055;-69
2022/04/03 00:25:11;;;;;;;0.00;0.00;;;1.20;1.00;;;;;;5058438;28;20476;-69
2022/04/03 00:27:37;;;;;;;0.00;0.00;;;1.10;1.00;;;;;;5058042;28;20033;-69
2022/04/03 00:30:03;;;;;;;1.67;0.55;;;1.00;1.00;;;;;;5058117;28;20437;-69
2022/04/03 00:32:29;;;;;;;0.38;0.38;;;0.90;1.00;;;;;;5057461;28;20098;-69
2022/04/03 00:34:55;;;;;;;0.03;0.03;;;1.00;1.00;;;;;;5057539;28;20076;-69
2022/04/03 00:37:20;;;;;;;0.10;0.10;;;1.00;1.00;;;;;;5057295;28;20032;-69
2022/04/03 00:39:46;;;;;;;0.00;0.00;;;0.90;1.00;;;;;;5057425;28;20069;-69
2022/04/03 00:42:12;;;;;;;0.05;0.05;;;0.90;1.00;;;;;;5058191;28;20044;-69
2022/04/03 00:44:38;;;;;;;1.27;0.80;;;0.80;1.00;;;;;;5057843;28;20041;-69
2022/04/03 00:47:04;;;;;;;0.00;0.00;;;0.70;1.00;;;;;;5057584;28;20059;-69
2022/04/03 00:49:31;;;;;;;0.10;0.10;;;0.80;1.00;;;;;;5058090;28;20091;-69
2022/04/03 00:51:57;;;;;;;0.28;0.28;;;1.10;1.00;;;;;;5056250;28;20044;-69
2022/04/03 00:54:23;;;;;;;0.20;0.20;;;1.00;1.00;;;;;;5057145;28;20056;-69
2022/04/03 00:56:49;;;;;;;0.10;0.10;;;1.00;1.00;;;;;;5057380;28;20037;-69
2022/04/03 00:59:15;;;;;;;0.20;0.20;;;1.00;1.00;;;;;;5057023;28;20041;-69
2022/04/03 01:01:43;;;;;;;0.10;0.10;;;1.10;1.00;;;;;;5056983;28;20119;-69
2022/04/03 01:04:09;;;;;;;0.80;0.80;;;1.00;1.00;;;;;;5057330;28;20116;-69
2022/04/03 01:06:35;;;;;;;0.00;0.00;;;0.80;1.00;;;;;;5057745;28;20084;-69
2022/04/03 01:09:03;;;;;;;0.28;0.28;;;0.80;1.00;;;;;;5056675;28;20048;-69
2022/04/03 01:11:30;;;;;;;0.00;0.00;;;0.80;1.00;;;;;;5057160;28;20072;-69
2022/04/03 01:13:56;;;;;;;0.05;0.05;;;0.80;1.00;;;;;;5057186;28;20037;-69
2022/04/03 01:16:22;;;;;;;0.40;0.40;;;0.80;1.00;;;;;;5056682;28;20104;-69
2022/04/03 01:18:48;;;;;;;0.00;0.00;;;0.70;1.00;;;;;;5056742;28;20040;-69
2022/04/03 01:21:14;;;;;;;0.10;0.10;;;0.60;1.00;;;;;;5057193;28;20531;-69
2022/04/03 01:23:40;;;;;;;0.00;0.00;;;0.50;1.00;;;;;;5056834;28;20040;-69
2022/04/03 01:26:06;;;;;;;0.17;0.17;;;0.40;1.00;;;;;;5056789;28;20061;-70
2022/04/03 01:28:32;;;;;;;0.28;0.28;;;0.30;1.00;;;;;;5056478;28;20129;-69
2022/04/03 01:30:58;;;;;;;0.30;0.30;;;0.30;1.00;;;;;;5056427;28;20033;-69
2022/04/03 01:33:24;;;;;;;0.10;0.10;;;0.40;1.00;;;;;;5056487;28;20487;-69
2022/04/03 01:35:50;;;;;;;0.10;0.10;;;0.20;1.00;;;;;;5056372;28;20029;-69
2022/04/03 01:38:16;;;;;;;0.00;0.00;;;0.30;1.00;;;;;;5056183;28;20522;-69
2022/04/03 01:40:42;;;;;;;0.00;0.00;;;0.20;1.00;;;;;;5056562;28;20037;-69
2022/04/03 01:43:12;;;;;;;0.13;0.13;;;0.20;1.00;;;;;;5056526;28;20041;-69
2022/04/03 01:45:39;;;;;;;0.65;0.45;;;0.20;1.00;;;;;;5057072;28;20036;-69
2022/04/03 01:48:07;;;;;;;0.32;0.32;;;0.10;1.00;;;;;;5056125;28;20044;-69
2022/04/03 01:50:33;;;;;;;0.03;0.03;;;0.30;1.00;;;;;;5056282;28;20033;-69
2022/04/03 01:52:59;;;;;;;0.10;0.10;;;0.30;1.00;;;;;;5055997;28;20079;-69
2022/04/03 01:55:25;;;;;;;0.20;0.20;;;0.30;1.00;;;;;;5056251;28;20044;-69
2022/04/03 01:57:53;;;;;;;0.10;0.10;;;0.50;1.00;;;;;;5055855;28;20036;-69
2022/04/03 02:00:19;;;;;;;0.45;0.45;;;0.50;1.00;;;;;;5055933;28;20488;-69
2022/04/03 02:02:45;;;;;;;0.57;0.55;;;0.50;1.00;;;;;;5056273;28;20392;-69
2022/04/03 02:05:11;;;;;;;1.15;1.05;;;0.60;1.00;;;;;;5055967;28;20082;-69
2022/04/03 02:07:38;;;;;;;0.03;0.03;;;0.50;1.00;;;;;;5067307;28;20028;-69
2022/04/03 02:10:08;;;;;;;0.05;0.05;;;0.50;1.00;;;;;;5075615;28;20029;-69
2022/04/03 02:12:38;;;;;;;0.10;0.10;;;0.60;1.00;;;;;;5074191;28;20106;-69
2022/04/03 02:15:05;;;;;;;0.05;0.05;;;0.60;1.00;;;;;;5075738;28;20499;-69
2022/04/03 02:17:31;;;;;;;0.13;0.13;;;0.60;1.00;;;;;;5075809;28;20047;-69
2022/04/03 02:19:57;;;;;;;0.20;0.20;;;0.50;1.00;;;;;;5075754;28;20036;-69
2022/04/03 02:22:23;;;;;;;0.17;0.17;;;0.40;1.00;;;;;;5076096;28;20047;-69
2022/04/03 02:24:49;;;;;;;0.63;0.63;;;0.50;1.00;;;;;;5075300;28;20059;-69
2022/04/03 02:27:15;;;;;;;0.00;0.00;;;0.30;1.00;;;;;;5075261;28;20494;-69
2022/04/03 02:29:41;;;;;;;0.15;0.15;;;0.20;1.00;;;;;;5075321;28;20394;-69
2022/04/03 02:32:07;;;;;;;0.10;0.10;;;0.20;1.00;;;;;;5075477;28;20041;-69
2022/04/03 02:34:33;;;;;;;0.20;0.20;;;0.20;1.00;;;;;;5057289;28;20407;-69
2022/04/03 02:36:58;;;;;;;0.20;0.20;;;0.30;1.00;;;;;;5075182;28;20041;-69
2022/04/03 02:39:25;;;;;;;0.13;0.13;;;0.30;1.00;;;;;;5075610;28;20098;-69
2022/04/03 02:41:50;;;;;;;0.10;0.10;;;0.20;1.00;;;;;;5075308;28;20125;-69
2022/04/03 02:44:17;;;;;;;0.10;0.10;;;0.40;1.00;;;;;;5074728;28;20060;-69
2022/04/03 02:46:42;;;;;;;0.20;0.20;;;0.20;1.00;;;;;;5075773;28;20037;-69
2022/04/03 02:49:08;;;;;;;0.20;0.20;;;0.20;1.00;;;;;;5075006;28;20415;-69
2022/04/03 02:51:36;;;;;;;0.00;0.00;;;0.30;1.00;;;;;;5074569;28;20491;-69
2022/04/03 02:54:02;;;;;;;0.20;0.10;;;0.30;1.00;;;;;;5074790;28;20047;-69
2022/04/03 02:56:27;;;;;;;0.00;0.00;;;0.20;1.00;;;;;;5074587;28;20044;-69
2022/04/03 02:58:54;;;;;;;0.10;0.10;;;0.20;1.00;;;;;;5074837;28;20544;-69
2022/04/03 03:01:20;;;;;;;0.08;0.08;;;0.10;1.00;;;;;;5074782;28;20043;-69
2022/04/03 03:03:46;;;;;;;0.10;0.10;;;0.20;1.00;;;;;;5074139;28;20036;-69
2022/04/03 03:06:12;;;;;;;0.30;0.30;;;0.10;1.00;;;;;;5074735;28;20039;-69
2022/04/03 03:08:38;;;;;;;0.10;0.10;;;0.10;1.00;;;;;;5074565;28;20039;-69
2022/04/03 03:11:04;;;;;;;0.20;0.20;;;0.00;1.00;;;;;;5075223;28;20029;-69
2022/04/03 03:13:30;;;;;;;0.10;0.10;;;-0.10;1.00;;;;;;5451275;22;20068;-69
2022/04/03 03:15:56;;;;;;;0.30;0.30;;;-0.20;1.00;;;;;;5449081;22;20071;-69
2022/04/03 03:18:23;;;;;;;0.10;0.10;;;0.10;1.00;;;;;;5074582;28;20064;-69
2022/04/03 03:20:51;;;;;;;0.00;0.00;;;0.00;1.00;;;;;;5074320;28;20048;-69
2022/04/03 03:23:18;;;;;;;0.00;0.00;;;0.00;1.00;;;;;;5074146;28;20076;-69
2022/04/03 03:25:45;;;;;;;0.00;0.00;;;-0.20;1.00;;;;;;5074325;28;20043;-69
2022/04/03 03:28:12;;;;;;;0.00;0.00;;;-0.20;1.00;;;;;;5074481;28;20082;-69
2022/04/03 03:30:40;;;;;;;0.00;0.00;;;-0.10;1.00;;;;;;5074202;28;20029;-69
2022/04/03 03:33:06;;;;;;;0.63;0.63;;;-0.20;1.00;;;;;;5074069;28;20040;-69
2022/04/03 03:35:36;;;;;;;0.08;0.08;;;-0.10;1.00;;;;;;5074689;28;20043;-69
2022/04/03 03:38:05;;;;;;;0.25;0.25;;;0.00;1.00;;;;;;5074162;28;20039;-69
2022/04/03 03:40:32;;;;;;;0.05;0.05;;;0.10;1.00;;;;;;5074162;28;20032;-69
2022/04/03 03:42:58;;;;;;;0.00;0.00;;;0.00;1.00;;;;;;5074932;28;20052;-69
2022/04/03 03:45:25;;;;;;;0.15;0.15;;;-0.10;1.00;;;;;;5074061;28;20040;-69
2022/04/03 03:47:52;;;;;;;0.00;0.00;;;-0.10;1.00;;;;;;5074653;28;20039;-69
2022/04/03 03:50:19;;;;;;;0.40;0.40;;;-0.10;1.00;;;;;;5074269;28;20072;-69
2022/04/03 03:52:45;;;;;;;0.10;0.10;;;-0.20;1.00;;;;;;5073914;28;20044;-69
2022/04/03 03:55:12;;;;;;;0.00;0.00;;;-0.20;1.00;;;;;;5074058;28;20040;-69
2022/04/03 03:57:39;;;;;;;0.52;0.50;;;-0.20;1.00;;;;;;5074787;28;20040;-69
2022/04/03 04:00:09;;;;;;;0.40;0.40;;;-0.30;1.00;;;;;;5073700;28;20509;-69
2022/04/03 04:05:10;;;;;;;0.10;0.10;;;-0.30;1.00;;;;;;5333133;22;20453;-69
2022/04/03 04:07:47;;;;;;;0.70;0.70;;;-0.30;1.00;;;;;;5073497;28;20105;-69
2022/04/03 04:13:07;;;;;;;0.10;0.10;;;-0.50;1.00;;;;;;5379156;22;20510;-69
2022/04/03 04:15:34;;;;;;;0.00;0.00;;;-0.60;1.00;;;;;;5073775;28;20170;-69
2022/04/03 04:18:00;;;;;;;0.00;0.00;;;-0.60;1.00;;;;;;5073733;28;20047;-69
2022/04/03 04:20:27;;;;;;;0.00;0.00;;;-0.70;1.00;;;;;;5073774;28;20445;-69
2022/04/03 04:22:54;;;;;;;0.32;0.32;;;-0.60;1.00;;;;;;5073834;28;20127;-69
2022/04/03 04:25:21;;;;;;;0.00;0.00;;;-0.60;1.00;;;;;;5073680;28;20477;-69
2022/04/03 04:27:47;;;;;;;0.15;0.15;;;-0.60;1.00;;;;;;5075631;28;20072;-69
2022/04/03 04:30:15;;;;;;;0.10;0.10;;;-0.50;1.00;;;;;;5077419;28;20068;-69
2022/04/03 04:32:42;;;;;;;0.08;0.08;;;-0.60;1.00;;;;;;5077454;28;20047;-69
2022/04/03 04:35:09;;;;;;;0.35;0.35;;;-0.60;1.00;;;;;;5077239;28;20554;-69
2022/04/03 04:37:36;;;;;;;0.10;0.10;;;-0.50;1.00;;;;;;5077130;28;20039;-69
2022/04/03 04:40:03;;;;;;;0.45;0.17;;;-0.60;1.00;;;;;;5450923;22;21429;-69
2022/04/03 04:42:29;;;;;;;0.08;0.08;;;-0.60;1.00;;;;;;5076798;28;20044;-69
2022/04/03 04:44:55;;;;;;;0.20;0.20;;;-0.50;1.00;;;;;;5077430;28;20132;-69
2022/04/03 04:47:21;;;;;;;2.17;0.85;;;-0.40;1.00;;;;;;5077284;28;20044;-69
2022/04/03 04:49:46;;;;;;;0.05;0.05;;;-0.40;1.00;;;;;;5462262;22;20060;-69
2022/04/03 04:59:55;;;;;;;0.00;0.00;;;-0.60;1.00;;;;;;5131038;22;20099;-68
2022/04/03 05:02:21;;;;;;;0.10;0.10;;;-0.50;1.00;;;;;;5076708;28;20094;-69
2022/04/03 05:04:47;;;;;;;0.20;0.20;;;-0.70;1.00;;;;;;5077008;28;20082;-69
2022/04/03 05:07:13;;;;;;;0.00;0.00;;;-0.60;1.00;;;;;;5077296;28;20033;-69
2022/04/03 05:09:39;;;;;;;0.00;0.00;;;-0.60;1.00;;;;;;5076954;28;20573;-68
2022/04/03 05:12:05;;;;;;;0.47;0.47;;;-0.70;1.00;;;;;;5076745;28;20049;-69
2022/04/03 05:14:31;;;;;;;0.00;0.00;;;-0.60;1.00;;;;;;5076871;28;20036;-69
2022/04/03 05:16:57;;;;;;;0.00;0.00;;;-0.50;1.00;;;;;;5077107;28;20040;-69
2022/04/03 05:19:27;;;;;;;0.10;0.10;;;-0.60;1.00;;;;;;5076774;28;20478;-69
2022/04/03 05:21:53;;;;;;;0.10;0.10;;;-0.60;1.00;;;;;;5076638;28;20071;-69
2022/04/03 05:24:19;;;;;;;0.10;0.10;;;-0.70;1.00;;;;;;5077123;28;20378;-69
2022/04/03 05:26:45;;;;;;;0.03;0.03;;;-0.70;1.00;;;;;;5076642;28;20032;-68
2022/04/03 05:29:10;;;;;;;0.30;0.30;;;-0.70;1.00;;;;;;5076684;28;20033;-69
2022/04/03 05:31:36;;;;;;;0.10;0.10;;;-0.70;1.00;;;;;;5076673;28;20133;-69
2022/04/03 05:34:02;;;;;;;0.10;0.10;;;-0.80;1.00;;;;;;5077019;28;20097;-69
2022/04/03 05:36:28;;;;;;;0.20;0.20;;;-0.50;1.00;;;;;;5077004;28;20041;-69
2022/04/03 05:38:54;;;;;;;0.28;0.28;;;-0.60;1.00;;;;;;5076451;28;20128;-69
2022/04/03 05:41:20;;;;;;;0.00;0.00;;;-0.70;1.00;;;;;;5076666;28;20115;-69
2022/04/03 05:43:46;;;;;;;0.20;0.20;;;-0.60;1.00;;;;;;5076121;28;20040;-69
2022/04/03 05:46:12;;;;;;;0.50;0.50;;;-0.50;1.00;;;;;;5076782;28;20036;-68
2022/04/03 05:48:38;;;;;;;0.00;0.00;;;-0.40;1.00;;;;;;5076567;28;20441;-68
2022/04/03 05:51:03;;;;;;;0.10;0.10;;;-0.50;1.00;;;;;;5077002;28;20043;-69
2022/04/03 05:53:30;;;;;;;0.00;0.00;;;-0.50;1.00;;;;;;5076423;28;20079;-68
2022/04/03 05:55:56;;;;;;;0.10;0.10;;;-0.50;1.00;;;;;;5076239;28;20033;-69
2022/04/03 05:58:23;;;;;;;0.00;0.00;;;-0.50;1.00;;;;;;5075517;28;20084;-69
2022/04/03 06:00:49;;;;;;;0.25;0.25;;;-0.30;1.00;;;;;;5075901;28;20037;-68
2022/04/03 06:03:15;;;;;;;0.10;0.10;;;-0.30;1.00;;;;;;5076077;28;20093;-68
2022/04/03 06:05:41;;;;;;;0.00;0.00;;;0.30;1.00;;;;;;5070450;28;20497;-69
2022/04/03 06:08:07;;;;;;;0.10;0.10;;;1.60;1.00;;;;;;5056256;28;20048;-69
2022/04/03 06:10:36;;;;;;;0.13;0.13;;;2.20;1.00;;;;;;5061728;28;20044;-69
2022/04/03 06:13:04;;;;;;;0.17;0.17;;;3.10;1.00;;;;;;5075076;28;20054;-68
2022/04/03 06:15:33;;;;;;;0.13;0.13;;;3.80;1.00;;;;;;5075534;28;20067;-69
2022/04/03 06:18:00;;;;;;;0.20;0.20;;;4.70;1.00;;;;;;5074976;28;20032;-69
2022/04/03 06:20:26;;;;;;;0.30;0.30;;;5.20;1.00;;;;;;5075798;28;20517;-68
2022/04/03 06:22:52;;;;;;;0.20;0.20;;;5.40;1.00;;;;;;5062228;28;20050;-69
2022/04/03 06:25:20;;;;;;;0.25;0.25;;;5.30;1.00;;;;;;5075333;28;20033;-69
2022/04/03 06:27:45;;;;;;;0.20;0.20;;;5.20;1.00;;;;;;5064379;28;20029;-69
2022/04/03 06:30:12;;;;;;;0.10;0.10;;;4.10;1.00;;;;;;5055316;28;20048;-69
2022/04/03 06:32:38;;;;;;;4.47;0.40;;;3.40;1.00;;;;;;5055141;28;20044;-69
2022/04/03 06:35:05;;;;;;;0.17;0.17;;;2.90;1.00;;;;;;5055042;28;20361;-69
2022/04/03 06:37:31;;;;;;;0.30;0.30;;;2.10;1.00;;;;;;5055105;28;20548;-68
2022/04/03 06:39:56;;;;;;;0.13;0.13;;;2.10;1.00;;;;;;5065166;28;20123;-69
2022/04/03 06:42:22;;;;;;;0.10;0.10;;;2.00;1.00;;;;;;5075268;28;20043;-69
2022/04/03 06:44:48;;;;;;;0.10;0.10;;;1.90;1.00;;;;;;5074548;28;20040;-69
2022/04/03 06:47:14;;;;;;;10.40;0.95;;;1.70;1.00;;;;;;5075216;28;20483;-69
2022/04/03 06:49:40;;;;;;;0.20;0.20;;;1.60;1.00;;;;;;5073959;28;20052;-69
2022/04/03 06:52:08;;;;;;;0.20;0.20;;;1.60;1.00;;;;;;5075035;28;20052;-69
2022/04/03 06:54:35;;;;;;;0.38;0.38;;;1.50;1.00;;;;;;5074882;28;20033;-69
2022/04/03 06:57:01;;;;;;;0.15;0.15;;;1.50;1.00;;;;;;5074502;28;20107;-69
2022/04/03 06:59:29;;;;;;;0.28;0.28;;;1.40;1.00;;;;;;5446461;22;20071;-69
2022/04/03 07:01:54;;;;;;;0.30;0.30;;;1.50;1.00;;;;;;5065828;28;20124;-69
2022/04/03 07:04:21;;;;;;;0.20;0.20;;;1.50;1.00;;;;;;5058651;28;20060;-69
2022/04/03 07:06:46;;;;;;;0.20;0.20;;;1.50;1.00;;;;;;5073705;28;20076;-69
2022/04/03 07:09:12;;;;;;;0.20;0.20;;;1.50;1.00;;;;;;5061547;28;20451;-69
2022/04/03 07:11:38;;;;;;;1.55;1.10;;;1.50;1.00;;;;;;5054786;28;20104;-70
2022/04/03 07:14:04;;;;;;;0.20;0.20;;;1.70;1.00;;;;;;5054451;28;20045;-69
2022/04/03 07:16:30;;;;;;;0.20;0.20;;;1.70;1.00;;;;;;5059366;28;20040;-69
2022/04/03 07:18:56;;;;;;;0.63;0.63;;;1.70;1.00;;;;;;5059895;28;20036;-68
2022/04/03 07:21:23;;;;;;;0.10;0.10;;;1.70;1.00;;;;;;5061409;28;20090;-68
2022/04/03 07:23:49;;;;;;;0.10;0.10;;;1.60;1.00;;;;;;5058508;28;20495;-69
2022/04/03 07:26:15;;;;;;;0.03;0.03;;;1.80;1.00;;;;;;5062966;28;20514;-69
2022/04/03 07:28:42;;;;;;;0.03;0.03;;;1.90;1.00;;;;;;5060630;28;20079;-70
2022/04/03 07:31:08;;;;;;;0.45;0.45;;;2.00;1.00;;;;;;5060245;28;20044;-68
2022/04/03 07:33:34;;;;;;;0.10;0.10;;;2.00;1.00;;;;;;5063920;28;20062;-68
2022/04/03 07:36:01;;;;;;;0.20;0.20;;;2.10;1.00;;;;;;5068831;28;20029;-69
2022/04/03 07:41:50;;;;;;;0.10;0.10;;;2.00;1.00;;;;;;5069572;28;20031;-69
2022/04/03 07:44:16;;;;;;;0.47;0.47;;;2.00;1.00;;;;;;5071938;28;20075;-68
2022/04/03 07:46:43;;;;;;;0.55;0.55;;;2.10;1.00;;;;;;5063354;28;20064;-68
2022/04/03 07:49:19;;;;;;;0.20;0.20;;;2.10;1.00;;;;;;5065980;28;20119;-69
2022/04/03 07:51:44;;;;;;;0.10;0.10;;;2.30;1.00;;;;;;5066569;28;20070;-68
2022/04/03 07:54:10;;;;;;;0.40;0.40;;;2.30;1.00;;;;;;5064507;28;20040;-68
2022/04/03 07:56:37;;;;;;;0.35;0.35;;;2.50;1.00;;;;;;5064636;28;20499;-68
2022/04/03 07:59:05;;;;;;;0.15;0.15;;;2.70;1.00;;;;;;5065122;28;20155;-69
2022/04/03 08:01:34;;;;;;;0.35;0.35;;;2.80;1.00;;;;;;5064110;28;20036;-68
2022/04/03 08:04:00;;;;;;;0.52;0.52;;;2.70;1.00;;;;;;5077776;28;20041;-68
2022/04/03 08:06:26;;;;;;;0.75;0.63;;;2.80;1.00;;;;;;5072567;28;20055;-68
2022/04/03 08:08:52;;;;;;;0.10;0.10;;;2.90;1.00;;;;;;5065611;28;20071;-68
2022/04/03 08:11:19;;;;;;;2.08;1.30;;;3.00;1.00;;;;;;5065553;28;20057;-69
2022/04/03 08:13:47;;;;;;;0.52;0.47;;;3.00;1.00;;;;;;5056211;28;20114;-68
2022/04/03 08:16:14;;;;;;;0.57;0.57;;;3.00;1.00;;;;;;5057760;28;20395;-69
2022/04/03 08:18:39;;;;;;;0.10;0.10;;;3.00;1.00;;;;;;5067157;28;20053;-68
2022/04/03 08:21:05;;;;;;;0.40;0.40;;;3.10;1.00;;;;;;5066152;28;20028;-69
2022/04/03 08:23:31;;;;;;;0.20;0.20;;;3.40;1.00;;;;;;5063119;28;20045;-68
2022/04/03 08:25:57;;;;;;;1.20;1.08;;;3.50;1.00;;;;;;5066144;28;20040;-68
2022/04/03 08:28:23;;;;;;;0.10;0.10;;;3.50;1.00;;;;;;5062812;28;20075;-68
2022/04/03 08:30:49;;;;;;;0.20;0.20;;;3.70;1.00;;;;;;5061815;28;20775;-68
2022/04/03 08:33:15;;;;;;;0.20;0.20;;;3.30;1.00;;;;;;5064856;28;20044;-68
2022/04/03 08:35:40;;;;;;;0.63;0.63;;;3.50;1.00;;;;;;5059582;28;20028;-68
2022/04/03 08:38:09;;;;;;;0.10;0.10;;;3.20;1.00;;;;;;5072255;28;20051;-68
2022/04/03 08:40:36;;;;;;;0.50;0.50;;;3.20;1.00;;;;;;5069693;28;20115;-68
2022/04/03 08:43:04;;;;;;;0.60;0.50;;;2.90;1.00;;;;;;5062383;28;20037;-68
2022/04/03 08:45:29;;;;;;;0.10;0.10;;;3.10;1.00;;;;;;5062643;28;20123;-68
2022/04/03 08:47:58;;;;;;;0.30;0.30;;;3.30;1.00;;;;;;5064453;28;20464;-69
2022/04/03 08:50:30;;;;;;;0.20;0.20;;;3.30;1.00;;;;;;5074183;28;20036;-69
2022/04/03 08:53:01;;;;;;;0.00;0.00;;;3.30;1.00;;;;;;5075937;28;20087;-69
2022/04/03 08:55:28;;;;;;;0.20;0.20;;;3.40;1.00;;;;;;5072116;28;20047;-68
2022/04/03 08:57:55;;;;;;;0.20;0.20;;;3.50;1.00;;;;;;5066459;28;20045;-68
2022/04/03 09:00:21;;;;;;;0.57;0.57;;;3.40;1.00;;;;;;5068599;28;20084;-68
2022/04/03 09:02:49;;;;;;;0.35;0.32;;;3.40;1.00;;;;;;5064432;28;20118;-69
2022/04/03 09:05:18;;;;;;;0.35;0.35;;;3.30;1.00;;;;;;5058692;28;20040;-68
2022/04/03 09:07:58;;;;;;;0.52;0.22;;;3.40;1.00;;;;;;5061479;28;20048;-69
2022/04/03 09:10:24;;;;;;;0.22;0.22;;;3.50;1.00;;;;;;5060849;28;20528;-68
2022/04/03 09:12:51;;;;;;;0.68;0.68;;;3.60;1.00;;;;;;5062664;28;20049;-69
2022/04/03 09:15:19;;;;;;;0.30;0.30;;;3.80;1.00;;;;;;5064442;28;20036;-69
2022/04/03 09:17:52;;;;;;;0.15;0.15;;;4.10;1.00;;;;;;5058944;28;20033;-69
2022/04/03 09:20:40;;;;;;;0.20;0.20;;;4.00;1.00;;;;;;5070556;28;20043;-70
2022/04/03 09:23:07;;;;;;;0.40;0.40;;;4.20;1.00;;;;;;5070647;28;20052;-70
2022/04/03 09:25:41;;;;;;;0.68;0.65;;;4.60;1.00;;;;;;5066598;28;20037;-70
2022/04/03 09:28:13;;;;;;;0.73;0.73;;;4.90;1.00;;;;;;5067089;28;20048;-70
2022/04/03 09:30:43;;;;;;;0.35;0.35;;;4.80;1.00;;;;;;5055654;28;20114;-70
2022/04/03 09:33:11;;;;;;;0.50;0.50;;;5.20;1.00;;;;;;5061224;28;20453;-70
2022/04/03 09:35:57;;;;;;;0.30;0.20;;;5.20;1.00;;;;;;5060192;28;20118;-70
2022/04/03 09:38:27;;;;;;;0.10;0.10;;;5.10;1.00;;;;;;5055718;28;20037;-70
2022/04/03 09:40:53;;;;;;;0.28;0.28;;;4.80;1.00;;;;;;5064091;28;20028;-70
2022/04/03 09:43:22;;;;;;;0.65;0.40;;;5.00;1.00;;;;;;5058243;28;20044;-70
2022/04/03 09:45:48;;;;;;;0.10;0.10;;;5.20;1.00;;;;;;5062330;28;20029;-70
2022/04/03 09:48:29;;;;;;;0.52;0.52;;;5.30;1.00;;;;;;5059721;28;20091;-69
2022/04/03 09:51:04;;;;;;;1.48;1.38;;;5.40;1.00;;;;;;5060220;28;20037;-70
2022/04/03 09:53:46;;;;;;;0.70;0.70;;;5.10;1.00;;;;;;5060815;28;20056;-69
2022/04/03 09:56:22;;;;;;;0.75;0.75;;;4.90;1.00;;;;;;5059696;28;20037;-70
2022/04/03 09:58:50;;;;;;;0.57;0.35;;;5.00;1.00;;;;;;5061760;28;20128;-70
2022/04/03 10:01:35;;;;;;;0.30;0.30;;;4.80;1.00;;;;;;5057601;28;20122;-70
2022/04/03 10:04:09;;;;;;;0.88;0.22;;;4.70;1.00;;;;;;5066443;28;20173;-69
2022/04/03 10:06:38;;;;;;;0.30;0.30;;;4.80;1.00;;;;;;5072619;28;20094;-70
2022/04/03 10:09:07;;;;;;;0.17;0.17;;;4.90;1.00;;;;;;5069925;28;20039;-70
2022/04/03 10:11:33;;;;;;;0.20;0.20;;;5.70;1.00;;;;;;5062783;28;20040;-70
2022/04/03 10:14:01;;;;;;;0.35;0.35;;;5.40;1.00;;;;;;5060944;28;20086;-70
2022/04/03 10:16:26;;;;;;;0.52;0.50;;;5.40;1.00;;;;;;5059543;28;20040;-69
2022/04/03 10:18:52;;;;;;;0.20;0.20;;;5.70;1.00;;;;;;5058928;28;20041;-69
2022/04/03 10:21:29;;;;;;;0.43;0.35;;;5.60;1.00;;;;;;5065017;28;20098;-69
2022/04/03 10:24:09;;;;;;;0.43;0.43;;;5.70;1.00;;;;;;5060343;28;20040;-69
2022/04/03 10:26:38;;;;;;;0.73;0.70;;;5.50;1.00;;;;;;5068015;28;20058;-69
2022/04/03 10:29:08;;;;;;;7.65;5.63;;;5.60;1.00;;;;;;5065699;28;20037;-69
2022/04/03 10:31:35;;;;;;;22.63;3.33;;;5.60;1.00;;;;;;5058053;28;20048;-70
2022/04/03 10:34:02;;;;;;;3.20;1.77;;;6.00;1.00;;;;;;5058338;28;20346;-70
2022/04/03 10:36:34;;;;;;;0.95;0.95;;;5.80;1.00;;;;;;5062640;28;20141;-70
2022/04/03 10:39:06;;;;;;;0.73;0.73;;;5.90;1.00;;;;;;5059572;28;20033;-70
2022/04/03 10:41:35;;;;;;;0.40;0.40;;;5.70;1.00;;;;;;5060433;28;20029;-70
2022/04/03 10:44:19;;;;;;;0.82;0.70;;;5.40;1.00;;;;;;5062209;28;20043;-70
2022/04/03 10:47:03;;;;;;;0.30;0.30;;;5.40;1.00;;;;;;5061866;28;20033;-70
2022/04/03 10:50:11;;;;;;;0.82;0.80;;;5.90;1.00;;;;;;5061485;28;20048;-73
2022/04/03 10:52:36;;;;;;;0.93;0.93;;;5.60;1.00;;;;;;5031105;28;20056;-70
2022/04/03 10:55:12;;;;;;;2.53;1.13;;;5.60;1.00;;;;;;5059948;28;20041;-70
2022/04/03 10:57:49;;;;;;;0.45;0.40;;;5.90;1.00;;;;;;5061939;28;20063;-70
2022/04/03 11:00:16;;;;;;;0.10;0.10;;;6.20;1.00;;;;;;5057605;28;20061;-70
2022/04/03 11:03:21;;;;;;;2.80;1.48;;;6.20;1.00;;;;;;5062052;28;20494;-70
2022/04/03 11:05:47;;;;;;;0.73;0.73;;;6.40;1.00;;;;;;5061721;28;20554;-70
2022/04/03 11:08:13;;;;;;;0.52;0.52;;;6.10;1.00;;;;;;5058870;28;20069;-70
2022/04/03 11:10:57;;;;;;;1.75;1.38;;;6.00;1.00;;;;;;5060286;28;20061;-70
2022/04/03 11:13:34;;;;;;;0.45;0.45;;;6.30;1.00;;;;;;5061799;28;20051;-70
2022/04/03 11:16:10;;;;;;;1.65;1.13;;;6.30;1.00;;;;;;5063015;28;20059;-69
2022/04/03 11:18:45;;;;;;;2.25;2.15;;;6.60;1.00;;;;;;5066477;28;20051;-70
2022/04/03 11:21:23;;;;;;;1.25;1.15;;;6.40;1.00;;;;;;5067086;28;20041;-70
2022/04/03 11:23:59;;;;;;;0.93;0.93;;;6.00;99.90;;;;;;5057986;28;20047;-70
2022/04/03 11:26:26;;;;;;;1.27;1.17;;;6.30;99.90;;;;;;5054357;28;20093;-70
2022/04/03 11:28:52;;;;;;;0.60;0.60;;;6.50;99.90;;;;;;5064308;28;20076;-70
2022/04/03 11:31:18;;;;;;;0.20;0.20;;;6.10;99.90;;;;;;5064046;28;20040;-70
2022/04/03 11:33:46;;;;;;;0.10;0.10;;;6.30;99.90;;;;;;5069213;28;20049;-70
2022/04/03 11:36:15;;;;;;;0.32;0.32;;;6.40;99.90;;;;;;5056037;28;20037;-70
2022/04/03 11:38:48;;;;;;;0.40;0.40;;;6.30;99.90;;;;;;5060325;28;20552;-70
2022/04/03 11:41:27;;;;;;;0.30;0.30;;;6.40;99.90;;;;;;5063156;28;20076;-70
2022/04/03 11:44:01;;;;;;;0.47;0.47;;;6.40;99.90;;;;;;5056379;28;20518;-70
2022/04/03 11:46:35;;;;;;;0.25;0.25;;;6.30;99.90;;;;;;5056436;28;20041;-70
2022/04/03 11:49:00;;;;;;;0.77;0.77;;;6.50;99.90;;;;;;5068444;28;20040;-69
2022/04/03 11:51:26;;;;;;;0.10;0.10;;;6.70;99.90;;;;;;5059392;28;20044;-69
2022/04/03 11:54:01;;;;;;;0.77;0.77;;;6.60;99.90;;;;;;5056466;28;20056;-69
2022/04/03 11:56:31;;;;;;;2.13;1.13;;;6.00;99.90;;;;;;5070654;28;20040;-69
2022/04/03 11:58:57;;;;;;;0.93;0.85;;;5.80;99.90;;;;;;5061987;28;20037;-69
2022/04/03 12:01:35;;;;;;;3.80;2.13;;;5.30;99.90;;;;;;5061315;28;20052;-69
2022/04/03 12:04:13;;;;;;;0.52;0.52;;;5.20;1.00;;;;;;5055555;28;20029;-68
2022/04/03 12:06:43;;;;;;;0.50;0.50;;;5.10;1.00;;;;;;5059075;28;20113;-68
2022/04/03 12:09:11;;;;;;;0.20;0.20;;;5.00;1.00;;;;;;5064782;28;20056;-70
2022/04/03 12:11:39;;;;;;;0.57;0.57;;;5.40;1.00;;;;;;5062301;28;20040;-68
2022/04/03 12:14:06;;;;;;;0.57;0.57;;;5.20;1.00;;;;;;5072253;28;20028;-69
2022/04/03 12:16:40;;;;;;;0.50;0.50;;;5.10;1.00;;;;;;5065289;28;20048;-69
2022/04/03 12:19:15;;;;;;;0.10;0.10;;;5.20;1.00;;;;;;5052864;28;20037;-71
2022/04/03 12:21:52;;;;;;;1.70;0.43;;;5.50;1.00;;;;;;5059964;28;20033;-70
2022/04/03 12:24:20;;;;;;;0.30;0.30;;;5.80;1.00;;;;;;5058016;28;20119;-72
2022/04/03 12:26:54;;;;;;;0.38;0.38;;;6.20;1.00;;;;;;5058521;28;20607;-70
2022/04/03 12:29:23;;;;;;;0.50;0.50;;;6.50;1.00;;;;;;5055798;28;20119;-70
2022/04/03 12:32:17;;;;;;;1.33;1.23;;;6.60;1.00;;;;;;5044662;28;20056;-69
2022/04/03 12:34:48;;;;;;;1.20;1.20;;;6.70;99.90;;;;;;5049272;28;20188;-68
2022/04/03 12:37:15;;;;;;;0.98;0.95;;;6.40;99.90;;;;;;5057653;28;20048;-70
2022/04/03 12:39:50;;;;;;;0.90;0.90;;;6.80;99.90;;;;;;5053472;28;20559;-69
2022/04/03 12:42:22;;;;;;;2.15;1.08;;;7.00;99.90;;;;;;5057305;28;20045;-69
2022/04/03 12:44:56;;;;;;;0.63;0.63;;;7.10;99.90;;;;;;5069035;28;20040;-69
2022/04/03 12:47:28;;;;;;;1.00;0.93;;;6.70;99.90;;;;;;5051871;28;20045;-69
2022/04/03 12:50:06;;;;;;;0.40;0.40;;;6.60;99.90;;;;;;5063580;28;20082;-71
2022/04/03 12:52:38;;;;;;;2.42;0.80;;;6.70;99.90;;;;;;5059835;28;20052;-69
2022/04/03 12:55:32;;;;;;;0.52;0.52;;;6.50;99.90;;;;;;5067912;28;20040;-69
2022/04/03 13:00:53;;;;;;;1.60;1.50;;;6.10;1.00;;;;;;5054853;28;20083;-69
2022/04/03 13:03:23;;;;;;;1.95;1.52;;;6.10;1.00;;;;;;5061051;28;20090;-69
2022/04/03 13:05:48;;;;;;;0.38;0.38;;;6.10;1.00;;;;;;5062168;28;20045;-69
2022/04/03 13:08:14;;;;;;;1.05;1.05;;;6.20;99.90;;;;;;5060909;28;20051;-69
2022/04/03 13:11:09;;;;;;;1.42;1.33;;;6.30;99.90;;;;;;5063300;28;20460;-69
2022/04/03 13:13:38;;;;;;;1.58;1.48;;;6.80;99.90;;;;;;5064177;28;20044;-69
2022/04/03 13:16:04;;;;;;;0.20;0.20;;;6.60;99.90;;;;;;5066506;28;20053;-69
2022/04/03 13:18:30;;;;;;;3.50;2.58;;;6.70;99.90;;;;;;5055381;28;20037;-69
2022/04/03 13:21:00;;;;;;;1.85;1.75;;;6.50;99.90;;;;;;5067647;28;20044;-69
2022/04/03 13:23:29;;;;;;;1.27;1.20;;;6.60;99.90;;;;;;5058646;28;20071;-68
2022/04/03 13:25:56;;;;;;;0.47;0.47;;;6.60;99.90;;;;;;5061047;28;20506;-69
2022/04/03 13:28:22;;;;;;;0.57;0.57;;;6.80;99.90;;;;;;5057383;28;20043;-69
2022/04/03 13:30:49;;;;;;;0.50;0.50;;;6.80;99.90;;;;;;5065876;28;20048;-69